sensor_id;sensor_type;location;lat;lon;timestamp;pressure;altitude;pressure_sealevel;temperature;humidity
1776;BME280;885;42.626;23.200;2023-04-15T00:00:45;167088.06;;;7.14;100.00
1776;BME280;885;42.626;23.200;2023-04-15T00:03:12;167100.47;;;7.19;100.00
1776;BME280;885;42.626;23.200;2023-04-15T00:05:38;167100.47;;;7.19;100.00
1776;BME280;885;42.626;23.200;2023-04-15T00:08:05;167152.75;;;7.38;100.00
1776;BME280;885;42.626;23.200;2023-04-15T00:10:32;167191.25;;;7.52;100.00
1776;BME280;885;42.626;23.200;2023-04-15T00:13:01;167224.31;;;7.64;100.00
1776;BME280;885;42.626;23.200;2023-04-15T00:15:28;167257.34;;;7.76;100.00
1776;BME280;885;42.626;23.200;2023-04-15T00:17:56;167271.06;;;7.81;100.00
1776;BME280;885;42.626;23.200;2023-04-15T00:20:22;167288.97;;;7.88;100.00
1776;BME280;885;42.626;23.200;2023-04-15T00:22:49;167262.84;;;7.78;100.00
1776;BME280;885;42.626;23.200;2023-04-15T00:25:16;167240.81;;;7.70;100.00
1776;BME280;885;42.626;23.200;2023-04-15T00:27:43;167243.53;;;7.71;100.00
1776;BME280;885;42.626;23.200;2023-04-15T00:30:11;167272.44;;;7.82;100.00
1776;BME280;885;42.626;23.200;2023-04-15T00:32:38;167187.13;;;7.51;100.00
1776;BME280;885;42.626;23.200;2023-04-15T00:35:07;167207.75;;;7.58;100.00
1776;BME280;885;42.626;23.200;2023-04-15T00:37:34;167192.63;;;7.53;100.00
1776;BME280;885;42.626;23.200;2023-04-15T00:40:01;167214.63;;;7.61;100.00
1776;BME280;885;42.626;23.200;2023-04-15T00:42:29;167169.25;;;7.44;100.00
1776;BME280;885;42.626;23.200;2023-04-15T00:44:56;167166.53;;;7.43;100.00
1776;BME280;885;42.626;23.200;2023-04-15T00:47:24;167158.25;;;7.40;100.00
1776;BME280;885;42.626;23.200;2023-04-15T00:49:52;167207.75;;;7.58;100.00
1776;BME280;885;42.626;23.200;2023-04-15T00:52:19;167213.31;;;7.60;100.00
1776;BME280;885;42.626;23.200;2023-04-15T00:54:46;167235.31;;;7.68;100.00
1776;BME280;885;42.626;23.200;2023-04-15T00:57:13;167216.03;;;7.61;100.00
1776;BME280;885;42.626;23.200;2023-04-15T00:59:39;167207.75;;;7.58;100.00
1776;BME280;885;42.626;23.200;2023-04-15T01:02:06;167195.41;;;7.54;100.00
1776;BME280;885;42.626;23.200;2023-04-15T01:04:34;167200.91;;;7.56;100.00
1776;BME280;885;42.626;23.200;2023-04-15T01:07:01;167216.03;;;7.61;100.00
1776;BME280;885;42.626;23.200;2023-04-15T01:09:28;167205.03;;;7.57;100.00
1776;BME280;885;42.626;23.200;2023-04-15T01:11:55;167195.41;;;7.54;100.00
1776;BME280;885;42.626;23.200;2023-04-15T01:14:22;167170.63;;;7.45;100.00
1776;BME280;885;42.626;23.200;2023-04-15T01:16:49;167155.53;;;7.39;100.00
1776;BME280;885;42.626;23.200;2023-04-15T01:19:16;167177.53;;;7.47;100.00
1776;BME280;885;42.626;23.200;2023-04-15T01:21:44;167166.53;;;7.43;100.00
1776;BME280;885;42.626;23.200;2023-04-15T01:24:12;167125.22;;;7.28;100.00
1776;BME280;885;42.626;23.200;2023-04-15T01:26:44;167127.97;;;7.29;100.00
1776;BME280;885;42.626;23.200;2023-04-15T01:29:11;167136.25;;;7.32;100.00
1776;BME280;885;42.626;23.200;2023-04-15T01:31:38;167141.75;;;7.34;100.00
1776;BME280;885;42.626;23.200;2023-04-15T01:34:04;167125.22;;;7.28;100.00
1776;BME280;885;42.626;23.200;2023-04-15T01:36:31;167119.72;;;7.26;100.00
1776;BME280;885;42.626;23.200;2023-04-15T01:38:58;167116.97;;;7.25;100.00
1776;BME280;885;42.626;23.200;2023-04-15T01:41:25;167119.72;;;7.26;100.00
1776;BME280;885;42.626;23.200;2023-04-15T01:43:53;167127.97;;;7.29;100.00
1776;BME280;885;42.626;23.200;2023-04-15T01:46:23;167126.63;;;7.29;100.00
1776;BME280;885;42.626;23.200;2023-04-15T01:48:50;167122.47;;;7.27;100.00
1776;BME280;885;42.626;23.200;2023-04-15T01:51:17;167105.97;;;7.21;100.00
1776;BME280;885;42.626;23.200;2023-04-15T01:53:44;167108.72;;;7.22;100.00
1776;BME280;885;42.626;23.200;2023-04-15T01:56:11;167133.47;;;7.31;100.00
1776;BME280;885;42.626;23.200;2023-04-15T01:58:37;167110.13;;;7.22;100.00
1776;BME280;885;42.626;23.200;2023-04-15T02:01:06;167108.72;;;7.22;100.00
1776;BME280;885;42.626;23.200;2023-04-15T02:03:34;167088.06;;;7.14;100.00
1776;BME280;885;42.626;23.200;2023-04-15T02:06:01;167075.72;;;7.10;100.00
1776;BME280;885;42.626;23.200;2023-04-15T02:08:28;167057.84;;;7.03;100.00
1776;BME280;885;42.626;23.200;2023-04-15T02:10:55;167114.22;;;7.24;100.00
1776;BME280;885;42.626;23.200;2023-04-15T02:13:22;167123.84;;;7.28;100.00
1776;BME280;885;42.626;23.200;2023-04-15T02:15:49;167127.97;;;7.29;100.00
1776;BME280;885;42.626;23.200;2023-04-15T02:18:18;167097.72;;;7.18;100.00
1776;BME280;885;42.626;23.200;2023-04-15T02:20:44;167096.34;;;7.17;100.00
1776;BME280;885;42.626;23.200;2023-04-15T02:23:11;167085.34;;;7.13;100.00
1776;BME280;885;42.626;23.200;2023-04-15T02:25:38;167085.34;;;7.13;100.00
1776;BME280;885;42.626;23.200;2023-04-15T02:28:05;167085.34;;;7.13;100.00
1776;BME280;885;42.626;23.200;2023-04-15T02:30:32;167092.22;;;7.16;100.00
1776;BME280;885;42.626;23.200;2023-04-15T02:32:59;167112.84;;;7.23;100.00
1776;BME280;885;42.626;23.200;2023-04-15T02:35:27;167086.72;;;7.14;100.00
1776;BME280;885;42.626;23.200;2023-04-15T02:37:54;167072.94;;;7.09;100.00
1776;BME280;885;42.626;23.200;2023-04-15T02:40:21;167070.19;;;7.08;100.00
1776;BME280;885;42.626;23.200;2023-04-15T02:42:47;167066.06;;;7.06;100.00
1776;BME280;885;42.626;23.200;2023-04-15T02:45:14;167064.69;;;7.06;100.00
1776;BME280;885;42.626;23.200;2023-04-15T02:47:42;167067.44;;;7.07;100.00
1776;BME280;885;42.626;23.200;2023-04-15T02:50:11;167046.84;;;6.99;100.00
1776;BME280;885;42.626;23.200;2023-04-15T02:52:41;167041.34;;;6.97;100.00
1776;BME280;885;42.626;23.200;2023-04-15T02:55:09;166998.69;;;6.82;100.00
1776;BME280;885;42.626;23.200;2023-04-15T02:57:36;166979.41;;;6.75;100.00
1776;BME280;885;42.626;23.200;2023-04-15T03:00:04;166954.69;;;6.66;100.00
1776;BME280;885;42.626;23.200;2023-04-15T03:02:34;166927.16;;;6.56;100.00
1776;BME280;885;42.626;23.200;2023-04-15T03:05:01;166910.66;;;6.50;100.00
1776;BME280;885;42.626;23.200;2023-04-15T03:07:28;166870.81;;;6.35;100.00
1776;BME280;885;42.626;23.200;2023-04-15T03:09:56;166861.19;;;6.31;100.00
1776;BME280;885;42.626;23.200;2023-04-15T03:12:23;166866.69;;;6.33;100.00
1776;BME280;885;42.626;23.200;2023-04-15T03:14:50;166872.19;;;6.35;100.00
1776;BME280;885;42.626;23.200;2023-04-15T03:17:19;166861.19;;;6.31;100.00
1776;BME280;885;42.626;23.200;2023-04-15T03:19:46;166861.19;;;6.31;100.00
1776;BME280;885;42.626;23.200;2023-04-15T03:22:13;166883.19;;;6.39;100.00
1776;BME280;885;42.626;23.200;2023-04-15T03:24:39;166874.97;;;6.36;100.00
1776;BME280;885;42.626;23.200;2023-04-15T03:27:07;166876.31;;;6.37;100.00
1776;BME280;885;42.626;23.200;2023-04-15T03:29:34;166841.94;;;6.24;100.00
1776;BME280;885;42.626;23.200;2023-04-15T03:32:01;166841.94;;;6.24;100.00
1776;BME280;885;42.626;23.200;2023-04-15T03:34:28;166843.31;;;6.25;100.00
1776;BME280;885;42.626;23.200;2023-04-15T03:36:55;166850.22;;;6.27;100.00
1776;BME280;885;42.626;23.200;2023-04-15T03:39:21;166873.56;;;6.36;100.00
1776;BME280;885;42.626;23.200;2023-04-15T03:41:48;166880.47;;;6.38;100.00
1776;BME280;885;42.626;23.200;2023-04-15T03:44:16;166885.94;;;6.40;100.00
1776;BME280;885;42.626;23.200;2023-04-15T03:46:43;166880.47;;;6.38;100.00
1776;BME280;885;42.626;23.200;2023-04-15T03:49:10;166876.31;;;6.37;100.00
1776;BME280;885;42.626;23.200;2023-04-15T03:51:36;166877.69;;;6.37;100.00
1776;BME280;885;42.626;23.200;2023-04-15T03:54:03;166869.47;;;6.34;100.00
1776;BME280;885;42.626;23.200;2023-04-15T03:56:30;166892.78;;;6.43;100.00
1776;BME280;885;42.626;23.200;2023-04-15T03:58:56;166885.94;;;6.40;100.00
1776;BME280;885;42.626;23.200;2023-04-15T04:01:25;166892.78;;;6.43;100.00
1776;BME280;885;42.626;23.200;2023-04-15T04:03:51;166862.59;;;6.32;100.00
1776;BME280;885;42.626;23.200;2023-04-15T04:06:18;166841.94;;;6.24;100.00
1776;BME280;885;42.626;23.200;2023-04-15T04:08:45;166837.81;;;6.23;100.00
1776;BME280;885;42.626;23.200;2023-04-15T04:11:12;166832.31;;;6.21;100.00
1776;BME280;885;42.626;23.200;2023-04-15T04:13:39;166841.94;;;6.24;100.00
1776;BME280;885;42.626;23.200;2023-04-15T04:16:06;166859.81;;;6.31;100.00
1776;BME280;885;42.626;23.200;2023-04-15T04:18:34;166854.31;;;6.29;100.00
1776;BME280;885;42.626;23.200;2023-04-15T04:21:01;166828.22;;;6.19;100.00
1776;BME280;885;42.626;23.200;2023-04-15T04:23:28;166857.09;;;6.30;100.00
1776;BME280;885;42.626;23.200;2023-04-15T04:25:55;166843.31;;;6.25;100.00
1776;BME280;885;42.626;23.200;2023-04-15T04:28:22;166833.72;;;6.21;100.00
1776;BME280;885;42.626;23.200;2023-04-15T04:30:49;166832.31;;;6.21;100.00
1776;BME280;885;42.626;23.200;2023-04-15T04:33:16;166806.22;;;6.11;100.00
1776;BME280;885;42.626;23.200;2023-04-15T04:35:44;166799.34;;;6.09;100.00
1776;BME280;885;42.626;23.200;2023-04-15T04:38:11;166839.22;;;6.23;100.00
1776;BME280;885;42.626;23.200;2023-04-15T04:40:38;166883.19;;;6.39;100.00
1776;BME280;885;42.626;23.200;2023-04-15T04:43:04;166890.06;;;6.42;100.00
1776;BME280;885;42.626;23.200;2023-04-15T04:45:31;166902.44;;;6.47;100.00
1776;BME280;885;42.626;23.200;2023-04-15T04:47:58;166921.66;;;6.54;100.00
1776;BME280;885;42.626;23.200;2023-04-15T04:50:24;166906.56;;;6.48;100.00
1776;BME280;885;42.626;23.200;2023-04-15T04:52:53;166916.16;;;6.52;100.00
1776;BME280;885;42.626;23.200;2023-04-15T04:55:19;166976.69;;;6.74;100.00
1776;BME280;885;42.626;23.200;2023-04-15T04:57:46;167066.06;;;7.06;100.00
1776;BME280;885;42.626;23.200;2023-04-15T05:00:13;167130.75;;;7.30;100.00
1776;BME280;885;42.626;23.200;2023-04-15T05:02:40;167199.53;;;7.55;100.00
1776;BME280;885;42.626;23.200;2023-04-15T05:05:08;167249.06;;;7.73;100.00
1776;BME280;885;42.626;23.200;2023-04-15T05:07:35;167304.13;;;7.93;100.00
1776;BME280;885;42.626;23.200;2023-04-15T05:10:04;167352.28;;;8.11;100.00
1776;BME280;885;42.626;23.200;2023-04-15T05:12:31;167359.16;;;8.14;100.00
1776;BME280;885;42.626;23.200;2023-04-15T05:14:58;167381.19;;;8.22;100.00
1776;BME280;885;42.626;23.200;2023-04-15T05:17:24;167395.03;;;8.27;100.00
1776;BME280;885;42.626;23.200;2023-04-15T05:19:51;167422.56;;;8.37;100.00
1776;BME280;885;42.626;23.200;2023-04-15T05:22:18;167418.44;;;8.35;96.47
1776;BME280;885;42.626;23.200;2023-04-15T05:24:46;167395.03;;;8.27;92.62
1776;BME280;885;42.626;23.200;2023-04-15T05:27:14;167455.59;;;8.49;89.81
1776;BME280;885;42.626;23.200;2023-04-15T05:29:41;167456.97;;;8.49;86.37
1776;BME280;885;42.626;23.200;2023-04-15T05:32:08;167513.44;;;8.70;89.09
1776;BME280;885;42.626;23.200;2023-04-15T05:34:35;167576.78;;;8.93;87.67
1776;BME280;885;42.626;23.200;2023-04-15T05:37:01;167607.13;;;9.04;86.33
1776;BME280;885;42.626;23.200;2023-04-15T05:39:28;167669.09;;;9.27;82.26
1776;BME280;885;42.626;23.200;2023-04-15T05:41:57;167740.72;;;9.53;80.14
1776;BME280;885;42.626;23.200;2023-04-15T05:44:25;167860.69;;;9.97;78.82
1776;BME280;885;42.626;23.200;2023-04-15T05:46:52;167896.50;;;10.10;77.74
1776;BME280;885;42.626;23.200;2023-04-15T05:49:19;167948.94;;;10.29;75.71
1776;BME280;885;42.626;23.200;2023-04-15T05:51:46;168028.94;;;10.58;74.71
1776;BME280;885;42.626;23.200;2023-04-15T05:54:13;168031.72;;;10.59;71.55
1776;BME280;885;42.626;23.200;2023-04-15T05:56:40;168031.53;;;10.60;72.71
1776;BME280;885;42.626;23.200;2023-04-15T05:59:07;168197.09;;;11.20;70.33
1776;BME280;885;42.626;23.200;2023-04-15T06:01:35;166973.03;;;10.80;69.94
1776;BME280;885;42.626;23.200;2023-04-15T06:04:02;166123.00;;;10.41;69.99
1776;BME280;885;42.626;23.200;2023-04-15T06:06:28;166090.25;;;10.28;72.39
1776;BME280;885;42.626;23.200;2023-04-15T06:08:56;166170.69;;;10.58;71.18
1776;BME280;885;42.626;23.200;2023-04-15T06:11:24;166189.81;;;10.65;72.28
1776;BME280;885;42.626;23.200;2023-04-15T06:13:51;165423.38;;;10.56;71.39
1776;BME280;885;42.626;23.200;2023-04-15T06:16:17;165948.03;;;11.13;69.09
1776;BME280;885;42.626;23.200;2023-04-15T06:18:46;166175.41;;;11.97;65.11
1776;BME280;885;42.626;23.200;2023-04-15T06:21:12;164576.38;;;11.55;66.72
1776;BME280;885;42.626;23.200;2023-04-15T06:23:39;163845.66;;;11.60;65.53
1776;BME280;885;42.626;23.200;2023-04-15T06:26:06;164832.72;;;12.51;65.07
1776;BME280;885;42.626;23.200;2023-04-15T06:28:33;163728.84;;;12.55;62.54
1776;BME280;885;42.626;23.200;2023-04-15T06:31:00;162075.38;;;11.92;63.85
1776;BME280;885;42.626;23.200;2023-04-15T06:33:27;160348.13;;;11.00;67.65
1776;BME280;885;42.626;23.200;2023-04-15T06:35:55;161945.34;;;11.43;68.08
1776;BME280;885;42.626;23.200;2023-04-15T06:38:21;161541.16;;;11.31;67.74
1776;BME280;885;42.626;23.200;2023-04-15T06:40:48;161222.94;;;11.51;66.40
1776;BME280;885;42.626;23.200;2023-04-15T06:43:15;159126.63;;;10.58;68.42
1776;BME280;885;42.626;23.200;2023-04-15T06:45:42;159873.94;;;10.60;70.67
1776;BME280;885;42.626;23.200;2023-04-15T06:48:10;160746.50;;;11.10;68.35
1776;BME280;885;42.626;23.200;2023-04-15T06:50:37;160793.94;;;11.29;68.48
1776;BME280;885;42.626;23.200;2023-04-15T06:53:05;161751.59;;;12.11;66.14
1776;BME280;885;42.626;23.200;2023-04-15T06:55:32;159750.56;;;11.55;64.53
1776;BME280;885;42.626;23.200;2023-04-15T06:57:59;159232.19;;;10.98;69.74
1776;BME280;885;42.626;23.200;2023-04-15T07:00:26;159600.25;;;10.97;70.03
1776;BME280;885;42.626;23.200;2023-04-15T07:02:53;161734.44;;;12.04;68.19
1776;BME280;885;42.626;23.200;2023-04-15T07:05:20;162037.75;;;13.19;61.99
1776;BME280;885;42.626;23.200;2023-04-15T07:07:47;162139.75;;;13.58;61.43
1776;BME280;885;42.626;23.200;2023-04-15T07:10:16;163995.28;;;14.95;59.12
1776;BME280;885;42.626;23.200;2023-04-15T07:12:42;157833.31;;;12.75;61.91
1776;BME280;885;42.626;23.200;2023-04-15T07:15:10;159334.13;;;12.81;64.89
1776;BME280;885;42.626;23.200;2023-04-15T07:17:36;157253.34;;;11.94;67.14
1776;BME280;885;42.626;23.200;2023-04-15T07:20:04;157585.75;;;11.79;68.19
1776;BME280;885;42.626;23.200;2023-04-15T07:22:31;157281.66;;;12.05;64.23
1776;BME280;885;42.626;23.200;2023-04-15T07:24:58;156805.38;;;11.64;67.68
1776;BME280;885;42.626;23.200;2023-04-15T07:27:26;155194.25;;;11.13;66.74
1776;BME280;885;42.626;23.200;2023-04-15T07:29:53;157257.25;;;11.95;66.53
1776;BME280;885;42.626;23.200;2023-04-15T07:32:20;158502.59;;;12.47;66.82
1776;BME280;885;42.626;23.200;2023-04-15T07:34:47;157811.38;;;12.67;63.69
1776;BME280;885;42.626;23.200;2023-04-15T07:37:14;157069.69;;;12.67;62.99
1776;BME280;885;42.626;23.200;2023-04-15T07:39:41;155722.47;;;11.75;67.43
1776;BME280;885;42.626;23.200;2023-04-15T07:42:10;154568.56;;;11.59;64.06
1776;BME280;885;42.626;23.200;2023-04-15T07:44:38;155311.06;;;11.59;67.92
1776;BME280;885;42.626;23.200;2023-04-15T07:47:05;154981.00;;;11.75;65.47
1776;BME280;885;42.626;23.200;2023-04-15T07:49:32;155326.28;;;11.65;68.62
1776;BME280;885;42.626;23.200;2023-04-15T07:51:59;154918.91;;;11.51;68.37
1776;BME280;885;42.626;23.200;2023-04-15T07:54:25;154906.22;;;11.46;67.92
1776;BME280;885;42.626;23.200;2023-04-15T07:56:55;156132.84;;;11.91;66.99
1776;BME280;885;42.626;23.200;2023-04-15T07:59:21;156609.97;;;12.33;65.98
1776;BME280;885;42.626;23.200;2023-04-15T08:01:49;157065.84;;;12.66;63.97
1776;BME280;885;42.626;23.200;2023-04-15T08:04:16;158703.56;;;13.25;65.21
1776;BME280;885;42.626;23.200;2023-04-15T08:06:43;158405.34;;;13.53;62.56
1776;BME280;885;42.626;23.200;2023-04-15T08:09:09;158838.41;;;13.77;62.02
1776;BME280;885;42.626;23.200;2023-04-15T08:11:37;158083.63;;;13.73;63.00
1776;BME280;885;42.626;23.200;2023-04-15T08:14:03;157299.53;;;13.57;61.38
1776;BME280;885;42.626;23.200;2023-04-15T08:16:30;157344.50;;;13.75;62.15
1776;BME280;885;42.626;23.200;2023-04-15T08:18:58;156545.34;;;13.53;61.33
1776;BME280;885;42.626;23.200;2023-04-15T08:21:25;155346.06;;;13.20;61.56
1776;BME280;885;42.626;23.200;2023-04-15T08:23:55;156132.69;;;13.37;63.08
1776;BME280;885;42.626;23.200;2023-04-15T08:26:22;157357.34;;;13.80;63.73
1776;BME280;885;42.626;23.200;2023-04-15T08:28:48;156656.53;;;13.97;60.79
1776;BME280;885;42.626;23.200;2023-04-15T08:31:17;156008.97;;;14.36;56.67
1776;BME280;885;42.626;23.200;2023-04-15T08:33:44;153722.72;;;14.14;55.11
1776;BME280;885;42.626;23.200;2023-04-15T08:36:12;152595.56;;;14.10;56.12
1776;BME280;885;42.626;23.200;2023-04-15T08:38:39;151451.66;;;13.98;55.88
1776;BME280;885;42.626;23.200;2023-04-15T08:41:09;150356.19;;;14.06;54.46
1776;BME280;885;42.626;23.200;2023-04-15T08:43:44;148810.34;;;13.82;54.85
1776;BME280;885;42.626;23.200;2023-04-15T08:46:13;146825.84;;;13.28;55.37
1776;BME280;885;42.626;23.200;2023-04-15T08:48:41;144469.22;;;12.71;56.49
1776;BME280;885;42.626;23.200;2023-04-15T08:51:08;146086.47;;;13.29;54.71
1776;BME280;885;42.626;23.200;2023-04-15T08:53:36;146524.16;;;13.57;55.00
1776;BME280;885;42.626;23.200;2023-04-15T08:56:05;147690.31;;;13.79;56.07
1776;BME280;885;42.626;23.200;2023-04-15T08:58:33;148454.69;;;13.88;57.09
1776;BME280;885;42.626;23.200;2023-04-15T09:01:01;148109.81;;;13.99;56.17
1776;BME280;885;42.626;23.200;2023-04-15T09:03:27;149336.16;;;14.46;55.31
1776;BME280;885;42.626;23.200;2023-04-15T09:05:56;147851.53;;;14.47;53.90
1776;BME280;885;42.626;23.200;2023-04-15T09:08:22;148682.09;;;14.83;53.83
1776;BME280;885;42.626;23.200;2023-04-15T09:10:51;147992.34;;;15.05;51.70
1776;BME280;885;42.626;23.200;2023-04-15T09:13:19;144608.63;;;14.90;47.77
1776;BME280;885;42.626;23.200;2023-04-15T09:15:46;145800.81;;;15.23;49.02
1776;BME280;885;42.626;23.200;2023-04-15T09:18:26;145140.63;;;15.58;48.70
1776;BME280;885;42.626;23.200;2023-04-15T09:20:54;143595.19;;;15.34;48.86
1776;BME280;885;42.626;23.200;2023-04-15T09:23:21;138146.97;;;14.23;49.17
1776;BME280;885;42.626;23.200;2023-04-15T09:25:48;138913.28;;;14.35;48.81
1776;BME280;885;42.626;23.200;2023-04-15T09:28:23;136343.75;;;14.46;46.59
1776;BME280;885;42.626;23.200;2023-04-15T09:30:51;136402.34;;;14.73;46.32
1776;BME280;885;42.626;23.200;2023-04-15T09:33:18;137186.34;;;14.92;46.54
1776;BME280;885;42.626;23.200;2023-04-15T09:35:56;136480.91;;;15.08;45.62
1776;BME280;885;42.626;23.200;2023-04-15T09:38:23;135722.38;;;15.01;45.69
1776;BME280;885;42.626;23.200;2023-04-15T09:40:50;136909.69;;;15.35;45.36
1776;BME280;885;42.626;23.200;2023-04-15T09:43:18;135753.16;;;15.15;47.06
1776;BME280;885;42.626;23.200;2023-04-15T09:45:49;135403.03;;;15.25;46.22
1776;BME280;885;42.626;23.200;2023-04-15T09:48:18;129352.16;;;14.68;43.79
1776;BME280;885;42.626;23.200;2023-04-15T09:50:46;127768.31;;;14.17;45.74
1776;BME280;885;42.626;23.200;2023-04-15T09:53:18;122056.47;;;13.31;46.01
1776;BME280;885;42.626;23.200;2023-04-15T09:55:48;122000.22;;;13.02;48.50
1776;BME280;885;42.626;23.200;2023-04-15T09:58:20;127295.53;;;13.67;50.57
1776;BME280;885;42.626;23.200;2023-04-15T10:00:48;126556.84;;;13.67;49.35
1776;BME280;885;42.626;23.200;2023-04-15T10:03:18;128479.72;;;14.04;48.55
1776;BME280;885;42.626;23.200;2023-04-15T10:05:46;126617.28;;;13.97;47.04
1776;BME280;885;42.626;23.200;2023-04-15T10:08:15;129246.41;;;14.17;50.08
1776;BME280;885;42.626;23.200;2023-04-15T10:10:44;132365.97;;;14.92;49.35
1776;BME280;885;42.626;23.200;2023-04-15T10:13:12;130136.78;;;14.89;46.96
1776;BME280;885;42.626;23.200;2023-04-15T10:15:42;133188.06;;;15.30;48.40
1776;BME280;885;42.626;23.200;2023-04-15T10:18:10;130994.16;;;15.44;44.60
1776;BME280;885;42.626;23.200;2023-04-15T10:20:39;132539.72;;;15.73;46.16
1776;BME280;885;42.626;23.200;2023-04-15T10:23:07;132199.66;;;15.88;44.88
1776;BME280;885;42.626;23.200;2023-04-15T10:25:35;134092.69;;;16.05;45.31
1776;BME280;885;42.626;23.200;2023-04-15T10:28:02;132201.81;;;15.89;45.55
1776;BME280;885;42.626;23.200;2023-04-15T10:30:30;133722.41;;;16.06;47.62
1776;BME280;885;42.626;23.200;2023-04-15T10:33:00;134095.94;;;16.07;48.46
1776;BME280;885;42.626;23.200;2023-04-15T10:35:27;131427.69;;;15.74;46.91
1776;BME280;885;42.626;23.200;2023-04-15T10:37:55;124478.41;;;14.36;48.58
1776;BME280;885;42.626;23.200;2023-04-15T10:40:26;127581.16;;;15.06;47.52
1776;BME280;885;42.626;23.200;2023-04-15T10:42:56;130299.06;;;15.66;46.95
1776;BME280;885;42.626;23.200;2023-04-15T10:45:25;131791.22;;;15.70;49.36
1776;BME280;885;42.626;23.200;2023-04-15T10:47:54;131058.84;;;15.75;48.79
1776;BME280;885;42.626;23.200;2023-04-15T10:50:24;129155.34;;;15.51;47.79
1776;BME280;885;42.626;23.200;2023-04-15T10:52:52;131087.44;;;15.88;47.21
1776;BME280;885;42.626;23.200;2023-04-15T10:55:22;132257.41;;;16.15;47.27
1776;BME280;885;42.626;23.200;2023-04-15T10:57:51;129618.22;;;15.96;45.89
1776;BME280;885;42.626;23.200;2023-04-15T11:00:19;130012.28;;;16.07;45.68
1776;BME280;885;42.626;23.200;2023-04-15T11:02:52;127318.97;;;15.59;46.31
1776;BME280;885;42.626;23.200;2023-04-15T11:08:12;130478.28;;;16.52;45.58
1776;BME280;885;42.626;23.200;2023-04-15T11:10:54;129387.31;;;16.63;43.85
1776;BME280;885;42.626;23.200;2023-04-15T11:13:25;129447.94;;;16.92;43.27
1776;BME280;885;42.626;23.200;2023-04-15T11:15:58;131006.22;;;17.26;43.11
1776;BME280;885;42.626;23.200;2023-04-15T11:18:28;132185.00;;;17.56;43.88
1776;BME280;885;42.626;23.200;2023-04-15T11:20:58;129217.19;;;17.60;40.70
1776;BME280;885;42.626;23.200;2023-04-15T11:23:31;119662.75;;;16.21;41.96
1776;BME280;885;42.626;23.200;2023-04-15T11:25:59;121919.97;;;16.39;42.79
1776;BME280;885;42.626;23.200;2023-04-15T11:28:27;123825.94;;;16.65;43.65
1776;BME280;885;42.626;23.200;2023-04-15T11:30:55;121520.06;;;16.24;43.71
1776;BME280;885;42.626;23.200;2023-04-15T11:33:22;125736.41;;;16.93;43.80
1776;BME280;885;42.626;23.200;2023-04-15T11:35:52;125418.81;;;17.20;43.63
1776;BME280;885;42.626;23.200;2023-04-15T11:38:19;121250.34;;;16.76;42.96
1776;BME280;885;42.626;23.200;2023-04-15T11:40:49;119371.38;;;16.62;40.84
1776;BME280;885;42.626;23.200;2023-04-15T11:43:18;118614.34;;;16.53;42.04
1776;BME280;885;42.626;23.200;2023-04-15T11:45:50;119377.16;;;16.65;41.57
1776;BME280;885;42.626;23.200;2023-04-15T11:48:18;120511.94;;;16.77;43.44
1776;BME280;885;42.626;23.200;2023-04-15T11:50:45;119386.75;;;16.70;43.60
1776;BME280;885;42.626;23.200;2023-04-15T11:53:12;108975.03;;;15.44;41.33
1776;BME280;885;42.626;23.200;2023-04-15T11:55:43;111152.69;;;15.66;43.34
1776;BME280;885;42.626;23.200;2023-04-15T11:58:14;112156.69;;;15.79;42.96
1776;BME280;885;42.626;23.200;2023-04-15T12:00:46;116018.34;;;16.51;42.04
1776;BME280;885;42.626;23.200;2023-04-15T12:03:16;106226.94;;;15.51;41.08
1776;BME280;885;42.626;23.200;2023-04-15T12:08:55;110042.81;;;15.96;41.02
1776;BME280;885;42.626;23.200;2023-04-15T12:11:30;108359.94;;;15.68;43.09
1776;BME280;885;42.626;23.200;2023-04-15T12:14:05;113760.13;;;16.30;42.81
1776;BME280;885;42.626;23.200;2023-04-15T12:16:35;112102.03;;;16.49;41.02
1776;BME280;885;42.626;23.200;2023-04-15T12:19:05;117205.97;;;16.92;43.01
1776;BME280;885;42.626;23.200;2023-04-15T12:21:35;116483.94;;;17.02;41.47
1776;BME280;885;42.626;23.200;2023-04-15T12:24:04;117260.66;;;17.21;41.60
1776;BME280;885;42.626;23.200;2023-04-15T12:26:35;116167.69;;;17.31;39.23
1776;BME280;885;42.626;23.200;2023-04-15T12:29:05;110554.31;;;17.06;37.62
1776;BME280;885;42.626;23.200;2023-04-15T12:31:33;108446.03;;;16.87;38.20
1776;BME280;885;42.626;23.200;2023-04-15T12:34:00;106470.75;;;16.73;38.04
1776;BME280;885;42.626;23.200;2023-04-15T12:36:27;108407.72;;;16.96;39.57
1776;BME280;885;42.626;23.200;2023-04-15T12:38:57;103382.09;;;16.20;40.17
1776;BME280;885;42.626;23.200;2023-04-15T12:41:24;104211.75;;;16.36;38.35
1776;BME280;885;42.626;23.200;2023-04-15T12:43:51;104101.19;;;16.25;40.09
1776;BME280;885;42.626;23.200;2023-04-15T12:46:19;106660.22;;;16.63;40.85
1776;BME280;885;42.626;23.200;2023-04-15T12:48:46;99348.50;;;15.31;41.94
1776;BME280;885;42.626;23.200;2023-04-15T12:51:13;102963.94;;;15.97;42.22
1776;BME280;885;42.626;23.200;2023-04-15T12:53:40;99976.06;;;15.46;42.25
1776;BME280;885;42.626;23.200;2023-04-15T12:56:06;97728.72;;;15.02;41.55
1776;BME280;885;42.626;23.200;2023-04-15T12:58:33;98471.03;;;15.23;41.99
1776;BME280;885;42.626;23.200;2023-04-15T13:01:00;102058.44;;;15.85;41.72
1776;BME280;885;42.626;23.200;2023-04-15T13:03:29;105886.28;;;16.63;41.63
1776;BME280;885;42.626;23.200;2023-04-15T13:05:56;105066.69;;;16.73;40.40
1776;BME280;885;42.626;23.200;2023-04-15T13:08:22;105032.66;;;16.79;39.53
1776;BME280;885;42.626;23.200;2023-04-15T13:10:49;107709.19;;;16.95;42.73
1776;BME280;885;42.626;23.200;2023-04-15T13:13:16;108142.03;;;17.26;39.95
1776;BME280;885;42.626;23.200;2023-04-15T13:15:43;105626.22;;;17.11;38.15
1776;BME280;885;42.626;23.200;2023-04-15T13:18:10;105191.34;;;17.03;40.32
1776;BME280;885;42.626;23.200;2023-04-15T13:20:38;104734.84;;;17.28;36.88